createdAt,value
2023-06-30T00:00:28.114Z,72.55
2023-06-30T00:01:28.107Z,72.65
2023-06-30T00:02:28.136Z,72.65
2023-06-30T00:03:28.170Z,72.75
2023-06-30T00:04:28.266Z,72.75
2023-06-30T00:05:28.017Z,72.65
2023-06-30T00:06:28.017Z,72.75
2023-06-30T00:07:28.093Z,72.75
2023-06-30T00:08:28.028Z,72.75
2023-06-30T00:09:28.003Z,72.85
2023-06-30T00:10:27.986Z,72.75
2023-06-30T00:11:27.998Z,72.95
2023-06-30T00:12:27.971Z,73.15
2023-06-30T00:13:27.986Z,73.25
2023-06-30T00:14:27.937Z,73.15
2023-06-30T00:15:27.975Z,72.95
2023-06-30T00:16:28.164Z,73.15
2023-06-30T00:17:27.975Z,73.15
2023-06-30T00:18:27.893Z,73.25
2023-06-30T00:19:27.882Z,73.25
2023-06-30T00:20:27.867Z,73.25
2023-06-30T00:21:27.896Z,73.75
2023-06-30T00:22:27.882Z,73.25
2023-06-30T00:23:27.842Z,73.45
2023-06-30T00:24:27.844Z,73.65
2023-06-30T00:25:27.834Z,73.65
2023-06-30T00:26:27.805Z,73.75
2023-06-30T00:27:27.828Z,73.85
2023-06-30T00:28:27.786Z,74.05
2023-06-30T00:29:27.755Z,74.25
2023-06-30T00:30:27.762Z,74.35
2023-06-30T00:31:27.815Z,74.58
2023-06-30T00:32:27.791Z,74.79
2023-06-30T00:33:27.714Z,74.88
2023-06-30T00:34:27.704Z,75.09
2023-06-30T00:35:27.729Z,75.28
2023-06-30T00:36:27.703Z,75.38
2023-06-30T00:37:27.714Z,75.68
2023-06-30T00:38:27.715Z,75.89
2023-06-30T00:39:27.657Z,75.98
2023-06-30T00:40:27.648Z,76.48
2023-06-30T00:41:27.712Z,76.78
2023-06-30T00:42:27.653Z,77.22
2023-06-30T00:43:27.641Z,77.92
2023-06-30T00:44:27.607Z,78.42
2023-06-30T00:45:27.586Z,79.02
2023-06-30T00:46:27.604Z,79.35
2023-06-30T00:47:27.634Z,79.96
2023-06-30T00:48:27.582Z,80.26
2023-06-30T00:49:27.566Z,80.76
2023-06-30T00:50:27.560Z,81.09
2023-06-30T00:51:27.587Z,81.59
2023-06-30T00:52:27.569Z,81.99
2023-06-30T00:53:27.530Z,82.29
2023-06-30T00:54:27.501Z,82.89
2023-06-30T00:55:27.502Z,82.93
2023-06-30T00:56:27.494Z,83.33
2023-06-30T00:57:27.535Z,83.93
2023-06-30T00:58:27.462Z,84.13
2023-06-30T00:59:27.468Z,84.87
2023-06-30T01:00:27.432Z,84.87
2023-06-30T01:01:28.267Z,85.17
2023-06-30T01:02:27.534Z,85.82
2023-06-30T01:03:27.590Z,86.11
2023-06-30T01:04:27.815Z,86.52
2023-06-30T01:05:27.423Z,86.91
2023-06-30T01:06:27.400Z,86.91
2023-06-30T01:07:27.436Z,87.12
2023-06-30T01:08:27.360Z,87.52
2023-06-30T01:09:27.346Z,87.71
2023-06-30T01:10:27.338Z,87.62
2023-06-30T01:11:27.359Z,88.36
2023-06-30T01:12:27.332Z,88.36
2023-06-30T01:13:27.319Z,88.66
2023-06-30T01:14:27.280Z,89.36
2023-06-30T01:15:27.289Z,89.36
2023-06-30T01:16:27.328Z,89.66
2023-06-30T01:17:27.295Z,89.86
2023-06-30T01:18:27.256Z,90.20
2023-06-30T01:19:27.289Z,90.81
2023-06-30T01:20:27.264Z,91.01
2023-06-30T01:21:27.231Z,91.31
2023-06-30T01:22:27.243Z,91.61
2023-06-30T01:23:27.277Z,91.81
2023-06-30T01:24:27.197Z,92.31
2023-06-30T01:25:27.204Z,92.35
2023-06-30T01:26:27.234Z,92.55
2023-06-30T01:27:27.157Z,92.85
2023-06-30T01:28:27.181Z,93.05
2023-06-30T01:29:27.154Z,92.85
2023-06-30T01:30:27.163Z,92.85
2023-06-30T01:31:27.187Z,92.85
2023-06-30T01:32:27.153Z,92.76
2023-06-30T01:33:27.142Z,92.85
2023-06-30T01:34:27.102Z,92.66
2023-06-30T01:35:27.093Z,93.16
2023-06-30T01:36:27.065Z,93.20
2023-06-30T01:37:27.079Z,93.30
2023-06-30T01:38:27.075Z,93.40
2023-06-30T01:39:27.100Z,93.60
2023-06-30T01:40:27.032Z,93.90
2023-06-30T01:41:28.024Z,93.60
2023-06-30T01:42:27.054Z,93.90
2023-06-30T01:43:27.023Z,93.80
2023-06-30T01:44:26.979Z,93.90
2023-06-30T01:45:27.002Z,94.00
2023-06-30T01:46:26.990Z,93.80
2023-06-30T01:47:26.990Z,94.00
2023-06-30T01:48:26.966Z,94.10
2023-06-30T01:49:27.040Z,94.20
2023-06-30T01:50:27.003Z,94.40
2023-06-30T01:51:26.920Z,94.10
2023-06-30T01:52:26.901Z,94.00
2023-06-30T01:53:26.904Z,94.00
2023-06-30T01:54:26.876Z,94.10
2023-06-30T01:55:26.861Z,94.00
2023-06-30T01:56:26.912Z,94.20
2023-06-30T01:57:26.877Z,94.10
2023-06-30T01:58:26.864Z,94.00
2023-06-30T01:59:26.828Z,94.20
2023-06-30T02:00:26.831Z,94.00
2023-06-30T02:01:26.900Z,94.00
2023-06-30T02:02:26.968Z,93.40
2023-06-30T02:03:26.909Z,93.15
2023-06-30T02:04:26.851Z,93.04
2023-06-30T02:05:26.847Z,93.15
2023-06-30T02:06:26.767Z,93.35
2023-06-30T02:07:26.880Z,93.65
2023-06-30T02:08:26.746Z,93.85
2023-06-30T02:09:38.869Z,93.85
2023-06-30T02:10:27.762Z,93.95
2023-06-30T02:11:26.736Z,94.05
2023-06-30T02:12:26.777Z,94.15
2023-06-30T02:13:26.628Z,94.05
2023-06-30T02:14:26.652Z,94.15
2023-06-30T02:15:26.620Z,94.35
2023-06-30T02:16:26.689Z,94.25
2023-06-30T02:17:26.824Z,94.25
2023-06-30T02:18:26.594Z,94.15
2023-06-30T02:19:26.621Z,94.45
2023-06-30T02:20:26.579Z,94.55
2023-06-30T02:21:26.800Z,94.15
2023-06-30T02:22:26.569Z,94.55
2023-06-30T02:23:26.537Z,94.75
2023-06-30T02:24:26.508Z,94.85
2023-06-30T02:25:26.551Z,94.65
2023-06-30T02:26:26.597Z,94.75
2023-06-30T02:27:26.557Z,94.95
2023-06-30T02:28:26.479Z,94.85
2023-06-30T02:29:26.622Z,94.75
2023-06-30T02:30:26.607Z,94.95
2023-06-30T02:31:26.621Z,94.55
2023-06-30T02:32:26.572Z,94.95
2023-06-30T02:33:26.445Z,95.36
2023-06-30T02:34:26.433Z,95.25
2023-06-30T02:35:26.440Z,95.15
2023-06-30T02:36:26.397Z,95.25
2023-06-30T02:37:26.369Z,95.15
2023-06-30T02:38:26.400Z,94.95
2023-06-30T02:39:26.371Z,95.20
2023-06-30T02:40:26.372Z,95.65
2023-06-30T02:41:26.323Z,95.75
2023-06-30T02:42:26.343Z,95.25
2023-06-30T02:43:26.341Z,95.15
2023-06-30T02:44:26.322Z,94.55
2023-06-30T02:45:26.303Z,94.45
2023-06-30T02:46:26.396Z,94.55
2023-06-30T02:47:26.345Z,94.45
2023-06-30T02:48:26.325Z,94.79
2023-06-30T02:49:26.257Z,95.10
2023-06-30T02:50:26.267Z,95.10
2023-06-30T02:51:26.241Z,95.30
2023-06-30T02:52:26.241Z,95.40
2023-06-30T02:53:26.217Z,95.40
2023-06-30T02:54:26.214Z,95.40
2023-06-30T02:55:26.187Z,95.50
2023-06-30T02:56:26.198Z,95.70
2023-06-30T02:57:26.175Z,95.70
2023-06-30T02:58:26.443Z,96.00
2023-06-30T02:59:26.154Z,95.80
2023-06-30T03:00:26.183Z,96.20
2023-06-30T03:01:26.189Z,96.41
2023-06-30T03:02:26.322Z,96.20
2023-06-30T03:03:26.180Z,96.20
2023-06-30T03:04:26.102Z,96.00
2023-06-30T03:05:26.062Z,96.06
2023-06-30T03:06:26.073Z,96.06
2023-06-30T03:07:26.124Z,95.86
2023-06-30T03:08:26.059Z,95.75
2023-06-30T03:09:26.052Z,95.95
2023-06-30T03:10:26.034Z,96.15
2023-06-30T03:11:26.060Z,96.26
2023-06-30T03:12:26.030Z,96.45
2023-06-30T03:13:26.014Z,96.26
2023-06-30T03:14:26.017Z,96.26
2023-06-30T03:15:25.977Z,96.56
2023-06-30T03:16:26.019Z,96.45
2023-06-30T03:17:26.006Z,96.66
2023-06-30T03:18:25.945Z,96.56
2023-06-30T03:19:25.936Z,95.55
2023-06-30T03:20:25.911Z,96.06
2023-06-30T03:21:25.958Z,95.25
2023-06-30T03:22:25.927Z,95.36
2023-06-30T03:23:25.882Z,95.65
2023-06-30T03:24:25.899Z,95.55
2023-06-30T03:25:25.860Z,95.45
2023-06-30T03:26:25.885Z,95.36
2023-06-30T03:27:25.856Z,95.25
2023-06-30T03:28:25.847Z,94.85
2023-06-30T03:29:25.829Z,94.45
2023-06-30T03:30:25.827Z,94.65
2023-06-30T03:31:25.926Z,94.81
2023-06-30T03:32:25.865Z,94.90
2023-06-30T03:33:25.805Z,94.90
2023-06-30T03:34:25.788Z,94.60
2023-06-30T03:35:25.759Z,94.40
2023-06-30T03:36:25.810Z,94.40
2023-06-30T03:37:25.756Z,94.60
2023-06-30T03:38:25.749Z,94.51
2023-06-30T03:39:25.743Z,94.00
2023-06-30T03:40:25.754Z,93.50
2023-06-30T03:41:25.709Z,93.30
2023-06-30T03:42:25.718Z,93.60
2023-06-30T03:43:25.714Z,93.70
2023-06-30T03:44:25.709Z,93.86
2023-06-30T03:45:25.705Z,94.16
2023-06-30T03:46:25.666Z,93.86
2023-06-30T03:47:25.690Z,93.50
2023-06-30T03:48:25.699Z,93.70
2023-06-30T03:49:25.610Z,93.60
2023-06-30T03:50:25.637Z,93.60
2023-06-30T03:51:25.620Z,93.80
2023-06-30T03:52:25.606Z,94.10
2023-06-30T03:53:25.553Z,94.10
2023-06-30T03:54:25.561Z,94.00
2023-06-30T03:55:25.596Z,93.66
2023-06-30T03:56:25.529Z,93.86
2023-06-30T03:57:25.556Z,94.06
2023-06-30T03:58:25.579Z,93.96
2023-06-30T03:59:25.529Z,93.86
2023-06-30T04:00:25.503Z,93.76
2023-06-30T04:01:25.510Z,93.81
2023-06-30T04:02:25.579Z,93.71
2023-06-30T04:03:27.691Z,93.62
2023-06-30T04:04:25.818Z,92.51
2023-06-30T04:05:25.489Z,92.55
2023-06-30T04:06:25.477Z,92.76
2023-06-30T04:07:25.567Z,92.81
2023-06-30T04:08:25.612Z,92.81
2023-06-30T04:09:25.444Z,92.81
2023-06-30T04:10:25.406Z,92.76
2023-06-30T04:11:25.392Z,92.46
2023-06-30T04:12:25.404Z,92.76
2023-06-30T04:13:25.380Z,92.76
2023-06-30T04:14:25.360Z,92.76
2023-06-30T04:15:25.384Z,92.66
2023-06-30T04:16:25.349Z,92.76
2023-06-30T04:17:25.366Z,92.46
2023-06-30T04:18:25.332Z,92.46
2023-06-30T04:19:25.344Z,92.41
2023-06-30T04:20:25.313Z,92.31
2023-06-30T04:21:25.323Z,92.71
2023-06-30T04:22:25.297Z,92.01
2023-06-30T04:23:25.265Z,91.61
2023-06-30T04:24:25.270Z,91.31
2023-06-30T04:25:25.282Z,91.31
2023-06-30T04:26:25.243Z,91.41
2023-06-30T04:27:25.215Z,91.31
2023-06-30T04:28:25.224Z,91.61
2023-06-30T04:29:25.305Z,91.61
2023-06-30T04:30:25.209Z,91.71
2023-06-30T04:31:25.207Z,91.77
2023-06-30T04:32:25.236Z,91.66
2023-06-30T04:33:25.195Z,90.86
2023-06-30T04:34:25.168Z,90.96
2023-06-30T04:35:25.175Z,91.27
2023-06-30T04:36:25.161Z,91.16
2023-06-30T04:37:25.162Z,90.77
2023-06-30T04:38:25.305Z,90.86
2023-06-30T04:39:25.127Z,90.56
2023-06-30T04:40:25.093Z,90.42
2023-06-30T04:41:25.092Z,89.72
2023-06-30T04:42:25.076Z,89.72
2023-06-30T04:43:25.114Z,89.92
2023-06-30T04:44:25.062Z,89.62
2023-06-30T04:45:25.085Z,90.12
2023-06-30T04:46:25.097Z,89.82
2023-06-30T04:47:25.105Z,89.82
2023-06-30T04:48:25.022Z,89.58
2023-06-30T04:49:24.992Z,89.53
2023-06-30T04:50:25.022Z,88.93
2023-06-30T04:51:24.984Z,88.13
2023-06-30T04:52:24.964Z,87.19
2023-06-30T04:53:24.970Z,86.59
2023-06-30T04:54:24.938Z,86.45
2023-06-30T04:55:25.000Z,85.41
2023-06-30T04:56:24.948Z,84.47
2023-06-30T04:57:24.967Z,83.67
2023-06-30T04:58:24.902Z,84.41
2023-06-30T04:59:24.944Z,83.77
2023-06-30T05:00:24.921Z,82.73
2023-06-30T05:01:24.957Z,82.83
2023-06-30T05:02:25.025Z,82.73
2023-06-30T05:03:24.891Z,82.64
2023-06-30T05:04:24.849Z,82.15
2023-06-30T05:05:24.850Z,80.08
2023-06-30T05:06:24.848Z,78.29
2023-06-30T05:07:24.849Z,78.39
2023-06-30T05:08:24.865Z,78.92
2023-06-30T05:09:24.785Z,79.43
2023-06-30T05:10:24.784Z,79.13
2023-06-30T05:11:24.799Z,78.25
2023-06-30T05:12:25.822Z,77.76
2023-06-30T05:13:24.755Z,78.09
2023-06-30T05:14:24.763Z,78.16
2023-06-30T05:15:24.744Z,76.79
2023-06-30T05:16:24.781Z,75.89
2023-06-30T05:17:24.991Z,75.06
2023-06-30T05:18:24.810Z,76.32
2023-06-30T05:19:24.707Z,76.82
2023-06-30T05:20:24.757Z,76.39
2023-06-30T05:21:24.674Z,76.29
2023-06-30T05:22:24.683Z,75.85
2023-06-30T05:23:24.665Z,76.15
2023-06-30T05:24:24.642Z,76.15
2023-06-30T05:25:24.953Z,75.09
2023-06-30T05:26:24.657Z,74.26
2023-06-30T05:27:24.608Z,73.13
2023-06-30T05:28:24.648Z,73.00
2023-06-30T05:29:24.639Z,71.97
2023-06-30T05:30:24.626Z,70.84
2023-06-30T05:31:24.639Z,69.13
2023-06-30T05:32:24.631Z,69.95
2023-06-30T05:33:24.563Z,69.42
2023-06-30T05:34:24.549Z,69.06
2023-06-30T05:35:24.559Z,69.69
2023-06-30T05:36:24.531Z,71.14
2023-06-30T05:37:24.521Z,70.95
2023-06-30T05:38:24.669Z,71.97
2023-06-30T05:39:24.509Z,72.04
2023-06-30T05:40:24.500Z,72.11
2023-06-30T05:41:24.536Z,73.43
2023-06-30T05:42:24.472Z,73.43
2023-06-30T05:43:24.480Z,74.07
2023-06-30T05:44:24.536Z,75.10
2023-06-30T05:45:24.514Z,76.66
2023-06-30T05:46:24.506Z,77.80
2023-06-30T05:47:24.459Z,77.76
2023-06-30T05:48:24.769Z,76.92
2023-06-30T05:49:24.376Z,76.13
2023-06-30T05:50:24.374Z,75.89
2023-06-30T05:51:24.357Z,74.76
2023-06-30T05:52:24.367Z,74.82
2023-06-30T05:53:25.104Z,74.39
2023-06-30T05:54:24.356Z,72.73
2023-06-30T05:55:24.341Z,71.25
2023-06-30T05:56:24.324Z,71.44
2023-06-30T05:57:24.333Z,70.78
2023-06-30T05:58:24.350Z,69.26
2023-06-30T05:59:24.317Z,69.35
2023-06-30T06:00:24.353Z,65.86
2023-06-30T06:01:24.323Z,65.27
2023-06-30T06:02:25.269Z,66.19
2023-06-30T06:03:24.388Z,67.91
2023-06-30T06:04:24.453Z,68.80
2023-06-30T06:05:24.461Z,67.77
2023-06-30T06:06:24.259Z,67.14
2023-06-30T06:07:24.288Z,65.63
2023-06-30T06:08:24.179Z,63.95
2023-06-30T06:09:24.245Z,64.74
2023-06-30T06:10:24.258Z,64.45
2023-06-30T06:11:24.199Z,64.45
2023-06-30T06:12:24.150Z,64.71
2023-06-30T06:13:24.206Z,63.85
2023-06-30T06:14:24.275Z,65.07
2023-06-30T06:15:24.161Z,65.56
2023-06-30T06:16:24.220Z,66.19
2023-06-30T06:17:24.194Z,66.88
2023-06-30T06:18:24.116Z,67.47
2023-06-30T06:19:24.127Z,67.28
2023-06-30T06:20:24.128Z,67.87
2023-06-30T06:21:24.080Z,67.68
2023-06-30T06:22:24.072Z,69.02
2023-06-30T06:23:24.201Z,70.98
2023-06-30T06:24:24.194Z,72.30
2023-06-30T06:25:24.085Z,71.61
2023-06-30T06:26:24.097Z,72.14
2023-06-30T06:27:24.053Z,73.07
2023-06-30T06:28:24.038Z,74.09
2023-06-30T06:29:24.047Z,75.26
2023-06-30T06:30:23.976Z,76.35
2023-06-30T06:31:24.116Z,76.68
2023-06-30T06:32:24.073Z,76.98
2023-06-30T06:33:23.983Z,75.79
2023-06-30T06:34:24.008Z,75.29
2023-06-30T06:35:24.024Z,74.87
2023-06-30T06:36:23.925Z,76.40
2023-06-30T06:37:23.907Z,77.00
2023-06-30T06:38:23.904Z,76.30
2023-06-30T06:39:24.075Z,76.17
2023-06-30T06:40:23.908Z,76.06
2023-06-30T06:41:23.927Z,75.73
2023-06-30T06:42:23.913Z,75.53
2023-06-30T06:43:23.866Z,75.10
2023-06-30T06:44:23.845Z,74.16
2023-06-30T06:45:23.873Z,73.67
2023-06-30T06:46:23.821Z,72.54
2023-06-30T06:47:23.844Z,72.47
2023-06-30T06:48:23.791Z,72.47
2023-06-30T06:49:23.853Z,73.67
2023-06-30T06:50:23.931Z,73.54
2023-06-30T06:51:24.579Z,72.88
2023-06-30T06:52:23.746Z,72.48
2023-06-30T06:53:23.758Z,72.02
2023-06-30T06:54:23.881Z,72.55
2023-06-30T06:55:23.805Z,71.29
2023-06-30T06:56:23.746Z,72.85
2023-06-30T06:57:23.756Z,74.05
2023-06-30T06:58:23.689Z,74.85
2023-06-30T06:59:23.880Z,75.15
2023-06-30T07:00:23.894Z,74.95
2023-06-30T07:01:23.727Z,74.65
2023-06-30T07:02:23.737Z,75.35
2023-06-30T07:03:23.714Z,75.55
2023-06-30T07:04:23.668Z,75.05
2023-06-30T07:05:23.620Z,75.05
2023-06-30T07:06:23.691Z,74.75
2023-06-30T07:07:23.666Z,74.65
2023-06-30T07:08:23.650Z,74.35
2023-06-30T07:09:23.741Z,74.65
2023-06-30T07:10:23.635Z,74.85
2023-06-30T07:11:23.611Z,75.15
2023-06-30T07:12:23.546Z,75.35
2023-06-30T07:13:23.576Z,75.45
2023-06-30T07:14:23.552Z,75.74
2023-06-30T07:15:23.538Z,75.74
2023-06-30T07:16:23.614Z,76.38
2023-06-30T07:17:23.623Z,76.28
2023-06-30T07:18:23.635Z,76.68
2023-06-30T07:19:23.637Z,76.98
2023-06-30T07:20:23.510Z,77.08
2023-06-30T07:21:23.513Z,75.68
2023-06-30T07:22:23.519Z,75.52
2023-06-30T07:23:26.704Z,76.45
2023-06-30T07:24:24.338Z,76.95
2023-06-30T07:25:23.453Z,77.06
2023-06-30T07:26:23.409Z,76.76
2023-06-30T07:27:23.472Z,76.76
2023-06-30T07:28:23.465Z,77.15
2023-06-30T07:29:23.431Z,77.15
2023-06-30T07:30:23.467Z,77.02
2023-06-30T07:31:23.389Z,76.82
2023-06-30T07:32:23.445Z,76.82
2023-06-30T07:33:23.373Z,76.52
2023-06-30T07:34:23.347Z,76.52
2023-06-30T07:35:23.443Z,76.72
2023-06-30T07:36:23.395Z,76.58
2023-06-30T07:37:23.320Z,76.58
2023-06-30T07:38:23.359Z,76.08
2023-06-30T07:39:23.285Z,75.89
2023-06-30T07:40:24.305Z,76.08
2023-06-30T07:41:23.289Z,75.82
2023-06-30T07:42:23.336Z,76.22
2023-06-30T07:43:23.276Z,76.42
2023-06-30T07:44:23.249Z,76.22
2023-06-30T07:45:23.278Z,76.12
2023-06-30T07:46:23.244Z,76.02
2023-06-30T07:47:23.366Z,76.42
2023-06-30T07:48:23.336Z,76.32
2023-06-30T07:49:23.300Z,76.12
2023-06-30T07:50:23.240Z,75.92
2023-06-30T07:51:23.195Z,76.32
2023-06-30T07:52:23.211Z,76.52
2023-06-30T07:53:23.193Z,76.42
2023-06-30T07:54:23.156Z,76.65
2023-06-30T07:55:23.197Z,77.15
2023-06-30T07:56:23.132Z,77.02
2023-06-30T07:57:23.068Z,76.72
2023-06-30T07:58:23.102Z,77.15
2023-06-30T07:59:23.095Z,77.56
2023-06-30T08:00:23.130Z,77.75
2023-06-30T08:01:23.141Z,77.86
2023-06-30T08:02:23.382Z,78.25
2023-06-30T08:03:23.269Z,78.16
2023-06-30T08:04:23.372Z,78.42
2023-06-30T08:05:23.193Z,79.05
2023-06-30T08:06:23.040Z,79.16
2023-06-30T08:07:49.538Z,79.46
2023-06-30T08:08:23.983Z,79.75
2023-06-30T08:09:24.389Z,80.29
2023-06-30T08:10:23.377Z,80.45
2023-06-30T08:11:23.229Z,80.59
2023-06-30T08:12:23.110Z,80.69
2023-06-30T08:13:23.133Z,80.79
2023-06-30T08:14:24.124Z,81.09
2023-06-30T08:15:23.256Z,81.69
2023-06-30T08:16:22.965Z,81.39
2023-06-30T08:17:30.954Z,81.19
2023-06-30T08:18:31.500Z,80.99
2023-06-30T08:19:47.033Z,81.09
2023-06-30T08:20:24.307Z,80.79
2023-06-30T08:21:22.913Z,80.79
2023-06-30T08:22:22.868Z,81.09
2023-06-30T08:23:22.859Z,80.55
2023-06-30T08:24:22.815Z,80.26
2023-06-30T08:25:22.805Z,80.26
2023-06-30T08:26:22.831Z,79.75
2023-06-30T08:27:22.900Z,80.05
2023-06-30T08:28:22.965Z,79.55
2023-06-30T08:29:22.786Z,79.85
2023-06-30T08:30:24.994Z,79.75
2023-06-30T08:31:22.813Z,79.41
2023-06-30T08:32:22.873Z,79.02
2023-06-30T08:33:35.125Z,78.78
2023-06-30T08:34:23.726Z,78.48
2023-06-30T08:35:22.681Z,78.38
2023-06-30T08:36:22.734Z,78.72
2023-06-30T08:37:22.690Z,79.32
2023-06-30T08:38:22.706Z,79.11
2023-06-30T08:39:22.658Z,78.58
2023-06-30T08:40:22.642Z,78.48
2023-06-30T08:41:22.660Z,78.44
2023-06-30T08:42:22.658Z,77.74
2023-06-30T08:43:22.660Z,77.11
2023-06-30T08:44:22.618Z,77.34
2023-06-30T08:45:22.758Z,77.04
2023-06-30T08:46:22.615Z,77.68
2023-06-30T08:47:22.645Z,77.98
2023-06-30T08:48:22.569Z,78.42
2023-06-30T08:49:22.548Z,78.72
2023-06-30T08:50:22.546Z,78.58
2023-06-30T08:51:22.653Z,77.78
2023-06-30T08:52:22.548Z,78.28
2023-06-30T08:53:22.504Z,77.74
2023-06-30T08:54:22.473Z,77.55
2023-06-30T08:55:22.515Z,77.55
2023-06-30T08:56:22.562Z,76.71
2023-06-30T08:57:22.485Z,76.71
2023-06-30T08:58:26.461Z,76.84
2023-06-30T08:59:22.450Z,76.67
2023-06-30T09:00:22.489Z,76.04
2023-06-30T09:01:22.500Z,75.04
2023-06-30T09:02:22.560Z,74.80
2023-06-30T09:03:22.547Z,74.30
2023-06-30T09:04:22.399Z,74.30
2023-06-30T09:05:22.483Z,73.71
2023-06-30T09:06:22.431Z,74.21
2023-06-30T09:07:22.853Z,74.21
2023-06-30T09:08:22.362Z,74.01
2023-06-30T09:09:22.329Z,73.47
2023-06-30T09:10:22.328Z,72.74
2023-06-30T09:11:22.390Z,72.78
2023-06-30T09:12:22.368Z,73.91
2023-06-30T09:13:22.282Z,75.18
2023-06-30T09:14:22.311Z,75.78
2023-06-30T09:15:22.341Z,76.31
2023-06-30T09:16:22.283Z,76.84
2023-06-30T09:17:22.293Z,77.04
2023-06-30T09:18:22.274Z,76.71
2023-06-30T09:19:22.323Z,75.97
2023-06-30T09:20:22.233Z,75.64
2023-06-30T09:21:25.433Z,74.74
2023-06-30T09:22:53.867Z,74.71
2023-06-30T09:23:23.237Z,74.60
2023-06-30T09:24:22.178Z,74.74
2023-06-30T09:25:22.330Z,74.94
2023-06-30T09:26:22.183Z,75.18
2023-06-30T09:27:22.169Z,75.67
2023-06-30T09:28:22.233Z,75.44
2023-06-30T09:29:22.168Z,75.04
2023-06-30T09:30:22.166Z,75.78
2023-06-30T09:31:22.117Z,76.01
2023-06-30T09:32:22.147Z,76.81
2023-06-30T09:33:22.162Z,77.44
2023-06-30T09:34:22.123Z,78.04
2023-06-30T09:35:22.176Z,78.38
2023-06-30T09:36:22.063Z,78.68
2023-06-30T09:37:22.063Z,78.64
2023-06-30T09:38:22.038Z,78.34
2023-06-30T09:39:22.067Z,78.64
2023-06-30T09:40:22.006Z,78.54
2023-06-30T09:41:22.069Z,78.64
2023-06-30T09:42:22.001Z,78.74
2023-06-30T09:43:22.007Z,79.08
2023-06-30T09:44:21.973Z,79.28
2023-06-30T09:45:21.961Z,79.34
2023-06-30T09:46:22.045Z,79.44
2023-06-30T09:47:21.977Z,78.74
2023-06-30T09:48:21.989Z,79.00
2023-06-30T09:49:21.954Z,78.86
2023-06-30T09:50:21.951Z,78.37
2023-06-30T09:51:21.904Z,78.56
2023-06-30T09:52:21.904Z,78.56
2023-06-30T09:53:21.991Z,79.50
2023-06-30T09:54:39.369Z,80.24
2023-06-30T09:55:22.870Z,81.63
2023-06-30T09:56:21.878Z,81.43
2023-06-30T09:57:21.865Z,81.10
2023-06-30T09:58:21.917Z,81.10
2023-06-30T09:59:21.863Z,81.49
2023-06-30T10:00:35.677Z,81.40
2023-06-30T10:01:22.826Z,81.30
2023-06-30T10:02:21.806Z,80.80
2023-06-30T10:03:22.085Z,81.60
2023-06-30T10:04:21.917Z,82.20
2023-06-30T10:05:21.742Z,81.60
2023-06-30T10:06:21.766Z,80.70
2023-06-30T10:07:21.784Z,80.60
2023-06-30T10:08:21.740Z,80.90
2023-06-30T10:09:21.692Z,80.90
2023-06-30T10:10:21.752Z,81.24
2023-06-30T10:11:21.706Z,81.34
2023-06-30T10:12:21.731Z,82.28
2023-06-30T10:13:21.763Z,82.28
2023-06-30T10:14:21.687Z,82.57
2023-06-30T10:15:21.719Z,82.77
2023-06-30T10:16:21.631Z,83.61
2023-06-30T10:17:21.734Z,84.11
2023-06-30T10:18:21.677Z,84.45
2023-06-30T10:19:21.672Z,84.75
2023-06-30T10:20:27.815Z,85.39
2023-06-30T10:21:22.629Z,86.49
2023-06-30T10:22:21.574Z,86.53
2023-06-30T10:23:21.834Z,87.48
2023-06-30T10:24:21.709Z,87.77
2023-06-30T10:25:21.531Z,88.07
2023-06-30T10:26:21.547Z,87.83
2023-06-30T10:27:21.533Z,87.53
2023-06-30T10:28:21.574Z,87.34
2023-06-30T10:29:21.522Z,87.63
2023-06-30T10:30:21.520Z,88.03
2023-06-30T10:31:21.487Z,88.57
2023-06-30T10:32:21.786Z,88.78
2023-06-30T10:33:21.491Z,88.87
2023-06-30T10:34:21.505Z,88.73
2023-06-30T10:35:21.466Z,88.64
2023-06-30T10:36:21.456Z,88.33
2023-06-30T10:37:21.440Z,87.99
2023-06-30T10:38:21.433Z,88.09
2023-06-30T10:39:21.444Z,89.03
2023-06-30T10:40:21.421Z,89.14
2023-06-30T10:41:21.420Z,88.89
2023-06-30T10:42:21.403Z,88.49
2023-06-30T10:43:21.353Z,88.09
2023-06-30T10:44:21.347Z,88.05
2023-06-30T10:45:21.412Z,87.35
2023-06-30T10:46:21.363Z,86.91
2023-06-30T10:47:21.336Z,86.95
2023-06-30T10:48:21.344Z,87.35
2023-06-30T10:49:21.286Z,86.35
2023-06-30T10:50:21.307Z,86.99
2023-06-30T10:51:21.295Z,87.59
2023-06-30T10:52:21.278Z,87.79
2023-06-30T10:53:21.338Z,87.99
2023-06-30T10:54:21.329Z,88.43
2023-06-30T10:55:22.264Z,87.73
2023-06-30T10:56:21.590Z,88.33
2023-06-30T10:57:21.330Z,88.33
2023-06-30T10:58:21.264Z,88.57
2023-06-30T10:59:21.202Z,89.07
2023-06-30T11:00:21.178Z,89.82
2023-06-30T11:01:21.220Z,90.72
2023-06-30T11:02:21.188Z,91.12
2023-06-30T11:03:21.341Z,92.16
2023-06-30T11:04:21.283Z,92.77
2023-06-30T11:05:21.144Z,93.27
2023-06-30T11:06:21.135Z,93.37
2023-06-30T11:07:21.287Z,93.17
2023-06-30T11:08:21.814Z,93.07
2023-06-30T11:09:21.172Z,93.07
2023-06-30T11:10:21.074Z,92.47
2023-06-30T11:11:21.093Z,92.27
2023-06-30T11:12:21.117Z,91.77
2023-06-30T11:13:21.106Z,91.66
2023-06-30T11:14:21.109Z,91.56
2023-06-30T11:15:21.043Z,90.96
2023-06-30T11:16:21.108Z,89.26
2023-06-30T11:17:21.136Z,87.96
2023-06-30T11:18:21.149Z,87.46
2023-06-30T11:19:21.087Z,86.66
2023-06-30T11:20:20.965Z,86.35
2023-06-30T11:21:20.993Z,86.46
2023-06-30T11:22:21.065Z,86.85
2023-06-30T11:23:21.027Z,86.35
2023-06-30T11:24:21.064Z,86.16
2023-06-30T11:25:20.936Z,85.35
2023-06-30T11:26:20.977Z,84.99
2023-06-30T11:27:20.952Z,85.99
2023-06-30T11:28:20.907Z,86.19
2023-06-30T11:29:20.925Z,86.30
2023-06-30T11:30:20.934Z,86.40
2023-06-30T11:31:20.908Z,86.30
2023-06-30T11:32:21.014Z,85.30
2023-06-30T11:33:20.835Z,86.30
2023-06-30T11:34:20.839Z,86.60
2023-06-30T11:35:20.852Z,87.40
2023-06-30T11:36:20.858Z,88.00
2023-06-30T11:37:20.850Z,88.10
2023-06-30T11:38:20.902Z,88.64
2023-06-30T11:39:20.772Z,89.25
2023-06-30T11:40:20.783Z,89.34
2023-06-30T11:41:21.223Z,89.14
2023-06-30T11:42:20.754Z,89.95
2023-06-30T11:43:20.803Z,89.20
2023-06-30T11:44:20.750Z,89.11
2023-06-30T11:45:20.741Z,89.25
2023-06-30T11:46:20.861Z,89.75
2023-06-30T11:47:20.825Z,90.25
2023-06-30T11:48:20.843Z,90.45
2023-06-30T11:49:20.733Z,89.95
2023-06-30T11:50:21.533Z,90.05
2023-06-30T11:51:20.665Z,89.81
2023-06-30T11:52:20.782Z,90.25
2023-06-30T11:53:20.655Z,90.50
2023-06-30T11:54:20.697Z,89.81
2023-06-30T11:55:20.633Z,90.61
2023-06-30T11:56:20.641Z,91.61
2023-06-30T11:57:20.634Z,91.91
2023-06-30T11:58:20.615Z,92.21
2023-06-30T11:59:20.570Z,91.56
2023-06-30T12:00:20.659Z,90.62
2023-06-30T12:01:20.621Z,89.28
2023-06-30T12:02:20.613Z,89.37
2023-06-30T12:03:20.633Z,89.58
2023-06-30T12:04:20.816Z,90.08
2023-06-30T12:05:20.563Z,89.87
2023-06-30T12:06:20.544Z,89.78
2023-06-30T12:07:20.547Z,90.17
2023-06-30T12:08:20.598Z,91.17
2023-06-30T12:09:20.466Z,90.63
2023-06-30T12:10:20.470Z,89.83
2023-06-30T12:11:20.470Z,88.28
2023-06-30T12:12:20.441Z,88.78
2023-06-30T12:13:20.444Z,88.98
2023-06-30T12:14:20.418Z,89.98
2023-06-30T12:15:20.477Z,91.02
2023-06-30T12:16:20.456Z,91.72
2023-06-30T12:17:20.440Z,90.62
2023-06-30T12:18:20.410Z,90.32
2023-06-30T12:19:20.360Z,90.12
2023-06-30T12:20:20.524Z,90.72
2023-06-30T12:21:20.491Z,91.27
2023-06-30T12:22:20.480Z,91.47
2023-06-30T12:23:20.328Z,91.77
2023-06-30T12:24:20.329Z,92.01
2023-06-30T12:25:20.407Z,92.11
2023-06-30T12:26:20.330Z,92.21
2023-06-30T12:27:20.342Z,90.45
2023-06-30T12:28:20.275Z,91.80
2023-06-30T12:29:20.346Z,91.50
2023-06-30T12:30:20.264Z,91.69
2023-06-30T12:31:20.291Z,91.89
2023-06-30T12:32:20.340Z,92.00
2023-06-30T12:33:20.285Z,91.89
2023-06-30T12:34:20.251Z,92.20
2023-06-30T12:35:20.188Z,92.30
2023-06-30T12:36:20.157Z,92.60
2023-06-30T12:37:20.240Z,92.46
2023-06-30T12:38:20.346Z,92.25
2023-06-30T12:39:20.196Z,92.15
2023-06-30T12:40:20.140Z,92.76
2023-06-30T12:41:20.151Z,92.66
2023-06-30T12:42:20.158Z,92.35
2023-06-30T12:43:20.150Z,92.55
2023-06-30T12:44:20.337Z,92.85
2023-06-30T12:45:20.111Z,92.55
2023-06-30T12:46:20.115Z,92.96
2023-06-30T12:47:20.086Z,92.50
2023-06-30T12:48:20.093Z,92.50
2023-06-30T12:49:20.063Z,93.40
2023-06-30T12:50:20.152Z,93.30
2023-06-30T12:51:20.062Z,93.20
2023-06-30T12:52:20.049Z,93.30